Accueil
METAR-TAF:

METAR-TAF

Aéroports :

Aéroport international Angoulême-Cognac

Angoulême, France

latitude: 45-43-46N, longitude: 00-13-08E, altitude: 132 m

Observation

Le bulletin a été fait il y a 24 minutes, à 23:00 UTC
Vent 12 kt de sud/sud-est
Température 10°C
Humidité 76%
Pression 1017 hPa
Visibilité 10 km ou plus
Ciel couvert à une hauteur de 2900 ft

METAR: LFBU 242300Z AUTO 16012KT 9999 OVC029 10/06 Q1017

Heure: 00:24 (23:24 UTC)

Prévision

Le bulletin a été fait il y a 6 heures et 24 minutes, à 17:00 UTC
Prévision valable du 24 à 18 UTC au 25 à 18 UTC
Vent 10 kt de sud/sud-est
Visibilité 10 km ou plus
pas de nuages en-dessous de 1500 mètres et pas de cumulonimbus.
Evoluant progressivement
du 25 à 15 UTC au 25 à 17 UTC
Vent 2 kt de direction variable

TAF: LFBU 241700Z 2418/2518 16010KT CAVOK BECMG 2515/2517 VRB02KT

Observations et prévisions météorologiques de plus de 4000 aéroports (messages METAR et TAF).

Les stations disponibles sont représentées par des disques jaunes et rouges sur la carte.

Passer la souris dessus pour voir le nom de la station.

Cliquer dessus pour voir les observations et prévisions météorologiques.

Pour changer de carte: cliquez sur les boutons verts avec une croix noire pour zoomer, sur le bouton vert avec un tiret pour effectuer un zoom arrière, ou sur les flèches vertes pour les cartes adjacentes.


METAR-TAF: